Lena, LA (71447)

9:55 PM CDT on April 29, 2017 (GMT -0500)
MUP882 | | Change Station

Elev 121 ft 31.46 °N, 92.77 °W | Updated 11 hours ago

Mostly Cloudy
Mostly Cloudy
80.0 °F
Feels Like 80.0 °F
N
-
Wind Variable Wind from North

Today
High -- | Low -- °F
--% Chance of Precip.
Yesterday
High -- | Low -- °F
Precip. -- in
Pressure 29.70 in
Visibility 10.0 miles
Clouds Few 2200 ft
Mostly Cloudy 2700 ft
Mostly Cloudy 3200 ft
Dew Point Not available.
Humidity Not available.
Rainfall in
Snow Depth Not available.
6:27 AM 7:49 PM
Waxing Crescent, 18% visible
SPECI KAEX 300226Z 16016G22KT 10SM FEW022 BKN027 BKN032 26/22 A2970 RMK AO2 PK WND 15031/0157 LTG DSNT E-SW RAE00 P0000 T02560222 $
Pressure 29.70 in
Visibility 10.0 miles
Clouds Few 2200 ft
Mostly Cloudy 2700 ft
Mostly Cloudy 3200 ft
Dew Point Not available.
Humidity Not available.
Rainfall in
Snow Depth Not available.
6:27 AM 7:49 PM
Waxing Crescent, 18% visible
SPECI KAEX 300226Z 16016G22KT 10SM FEW022 BKN027 BKN032 26/22 A2970 RMK AO2 PK WND 15031/0157 LTG DSNT E-SW RAE00 P0000 T02560222 $

Get Severe Weather Alerts

Thanks for signing up!

Be on the lookout for a verification email in your inbox.

You'll start receiving the daily forecast at 8 AM.

×

10-Day Weather Forecast

Almanac

Astronomy

Apr. 29, 2017 Rise Set
Actual Time
Civil Twilight
Nautical Twilight
Astronomical Twilight
Moon
Length of Visible Light
Length of Day
Tomorrow will be .
, % of the Moon is Illuminated

Today's Extremes

State Highs State Lows

Community

WunderPhotos

WunderBlog® & News

Nearby

Air Quality

  Air Quality AQ Index Pollutant
Not available.

Snow Depth

Station Depth Elevation

Earthquake Activity

City Distance Mag. Time & Date
Minimum magnitude displayed is 2.5.

Coastal Water Temperatures

Place Temperature

Stations

Nearby Weather Stations

Station Location Temp. Windchill Dew Point Humidity Wind Precip. Elev Updated Type
                   

Watches & Warnings

There are currently no watches in effect.